HKE898 VHHH-RJBB
Flight info
| Callsign | HKE898 |
|---|---|
| Flight time | N/A |
| Altitude | 35000 |
| Route | DALOL V631 ENVAR M750 PILOX/N0445F370 M750 MADOG Y53 NIXOV |
| Aircraft | A21N/M-SDE2E3FGHIRWXY/LB1 |
Departure
| Time | 2026-05-05 03:30 |
|---|---|
| Airport | Hong Kong International Airport (VHHH) |
Arrival
| Time | N/A |
|---|---|
| Airport | Kansai International Airport (RJBB) |
| Time | Latitude | Longitude | Altitude | Speed | Heading |
|---|---|---|---|---|---|
| 2026-05-05 03:03 | 22.31211 | 113.91599 | 35 ft | 0 kts | 71° |
| 2026-05-05 03:21 | 22.31210 | 113.91598 | 35 ft | 1 kts | 71° |
| 2026-05-05 03:21 | 22.31203 | 113.91573 | 34 ft | 4 kts | 71° |
| 2026-05-05 03:21 | 22.31194 | 113.91546 | 34 ft | 4 kts | 71° |
| 2026-05-05 03:21 | 22.31184 | 113.91520 | 33 ft | 4 kts | 46° |
| 2026-05-05 03:22 | 22.31166 | 113.91512 | 33 ft | 3 kts | 342° |
| 2026-05-05 03:22 | 22.31145 | 113.91519 | 35 ft | 4 kts | 341° |
| 2026-05-05 03:22 | 22.31139 | 113.91522 | 33 ft | 0 kts | 341° |
| 2026-05-05 03:24 | 22.31139 | 113.91521 | 35 ft | 0 kts | 341° |
| 2026-05-05 03:24 | 22.31158 | 113.91515 | 35 ft | 4 kts | 341° |
| 2026-05-05 03:24 | 22.31184 | 113.91505 | 35 ft | 5 kts | 341° |
| 2026-05-05 03:25 | 22.31245 | 113.91482 | 35 ft | 10 kts | 341° |
| 2026-05-05 03:25 | 22.31292 | 113.91465 | 35 ft | 12 kts | 341° |
| 2026-05-05 03:25 | 22.31413 | 113.91392 | 35 ft | 13 kts | 281° |
| 2026-05-05 03:25 | 22.31402 | 113.91331 | 35 ft | 12 kts | 250° |
| 2026-05-05 03:26 | 22.31361 | 113.91204 | 35 ft | 14 kts | 251° |
| 2026-05-05 03:26 | 22.31328 | 113.91103 | 35 ft | 14 kts | 251° |
| 2026-05-05 03:26 | 22.31307 | 113.91035 | 35 ft | 14 kts | 251° |
| 2026-05-05 03:26 | 22.31276 | 113.90940 | 35 ft | 14 kts | 251° |
| 2026-05-05 03:27 | 22.31244 | 113.90842 | 35 ft | 14 kts | 251° |
| 2026-05-05 03:27 | 22.31189 | 113.90670 | 35 ft | 23 kts | 251° |
| 2026-05-05 03:27 | 22.31153 | 113.90560 | 35 ft | 23 kts | 250° |
| 2026-05-05 03:27 | 22.31101 | 113.90398 | 35 ft | 22 kts | 250° |
| 2026-05-05 03:28 | 22.31051 | 113.90244 | 35 ft | 22 kts | 251° |
| 2026-05-05 03:28 | 22.31002 | 113.90090 | 35 ft | 21 kts | 251° |
| 2026-05-05 03:28 | 22.30954 | 113.89939 | 35 ft | 21 kts | 251° |
| 2026-05-05 03:28 | 22.30947 | 113.89810 | 35 ft | 14 kts | 305° |
| 2026-05-05 03:29 | 22.31022 | 113.89780 | 33 ft | 16 kts | 348° |
| 2026-05-05 03:29 | 22.31111 | 113.89845 | 33 ft | 16 kts | 79° |
| 2026-05-05 03:29 | 22.31138 | 113.89944 | 33 ft | 6 kts | 71° |
| 2026-05-05 03:29 | 22.31143 | 113.89958 | 31 ft | 9 kts | 71° |
| 2026-05-05 03:30 | 22.31223 | 113.90209 | 34 ft | 65 kts | 71° |
| 2026-05-05 03:30 | 22.31442 | 113.90887 | 35 ft | 127 kts | 71° |
| 2026-05-05 03:30 | 22.31786 | 113.91957 | 64 ft | 170 kts | 71° |
| 2026-05-05 03:30 | 22.32176 | 113.93139 | 664 ft | 166 kts | 72° |
| 2026-05-05 03:31 | 22.32554 | 113.94311 | 1263 ft | 165 kts | 72° |
| 2026-05-05 03:31 | 22.32936 | 113.95505 | 1758 ft | 176 kts | 74° |
| 2026-05-05 03:31 | 22.33422 | 113.96827 | 1996 ft | 202 kts | 65° |
| 2026-05-05 03:31 | 22.34190 | 113.98194 | 2373 ft | 227 kts | 59° |
| 2026-05-05 03:32 | 22.35105 | 113.99673 | 3139 ft | 243 kts | 58° |
| 2026-05-05 03:32 | 22.36056 | 114.01210 | 4225 ft | 248 kts | 54° |
| 2026-05-05 03:32 | 22.37068 | 114.02759 | 5226 ft | 261 kts | 59° |
| 2026-05-05 03:32 | 22.38040 | 114.04433 | 6203 ft | 266 kts | 54° |
| 2026-05-05 03:33 | 22.39091 | 114.06036 | 7098 ft | 261 kts | 54° |
| 2026-05-05 03:33 | 22.39956 | 114.07785 | 7733 ft | 270 kts | 77° |
| 2026-05-05 03:33 | 22.39927 | 114.09817 | 8234 ft | 278 kts | 108° |
| 2026-05-05 03:33 | 22.39218 | 114.11814 | 8694 ft | 290 kts | 116° |
| 2026-05-05 03:34 | 22.38357 | 114.13817 | 9354 ft | 297 kts | 117° |
| 2026-05-05 03:34 | 22.37487 | 114.15849 | 10066 ft | 301 kts | 117° |
| 2026-05-05 03:34 | 22.36600 | 114.17963 | 10458 ft | 318 kts | 116° |
| 2026-05-05 03:34 | 22.35672 | 114.20211 | 10700 ft | 337 kts | 116° |
| 2026-05-05 03:35 | 22.34703 | 114.22585 | 10953 ft | 354 kts | 115° |
| 2026-05-05 03:35 | 22.33641 | 114.24995 | 11293 ft | 363 kts | 123° |
| 2026-05-05 03:35 | 22.32052 | 114.27108 | 11784 ft | 365 kts | 142° |
| 2026-05-05 03:35 | 22.29919 | 114.28582 | 12380 ft | 363 kts | 155° |
| 2026-05-05 03:36 | 22.27630 | 114.29751 | 12989 ft | 365 kts | 158° |
| 2026-05-05 03:36 | 22.25295 | 114.30886 | 13519 ft | 370 kts | 157° |
| 2026-05-05 03:36 | 22.23044 | 114.32274 | 14049 ft | 376 kts | 149° |
| 2026-05-05 03:36 | 22.20889 | 114.33905 | 14547 ft | 380 kts | 147° |
| 2026-05-05 03:37 | 22.18741 | 114.35600 | 15030 ft | 384 kts | 147° |
| 2026-05-05 03:37 | 22.16574 | 114.37319 | 15512 ft | 388 kts | 147° |
| 2026-05-05 03:37 | 22.14388 | 114.39050 | 16007 ft | 392 kts | 147° |
| 2026-05-05 03:37 | 22.12204 | 114.40779 | 16477 ft | 396 kts | 148° |
| 2026-05-05 03:38 | 22.09961 | 114.42551 | 16867 ft | 402 kts | 148° |
| 2026-05-05 03:38 | 22.07694 | 114.44339 | 17309 ft | 405 kts | 148° |
| 2026-05-05 03:38 | 22.05436 | 114.46120 | 17738 ft | 407 kts | 148° |
| 2026-05-05 03:38 | 22.03103 | 114.47958 | 18159 ft | 410 kts | 148° |
| 2026-05-05 03:39 | 22.00790 | 114.49779 | 18509 ft | 413 kts | 148° |
| 2026-05-05 03:39 | 21.98470 | 114.51611 | 18816 ft | 416 kts | 147° |
| 2026-05-05 03:39 | 21.96269 | 114.53691 | 19099 ft | 425 kts | 137° |
| 2026-05-05 03:39 | 21.94381 | 114.56124 | 19389 ft | 431 kts | 131° |
| 2026-05-05 03:40 | 21.92554 | 114.58709 | 19658 ft | 434 kts | 130° |
| 2026-05-05 03:40 | 21.90729 | 114.61327 | 19928 ft | 437 kts | 130° |
| 2026-05-05 03:40 | 21.88896 | 114.63951 | 20191 ft | 439 kts | 130° |
| 2026-05-05 03:40 | 21.87053 | 114.66580 | 20473 ft | 442 kts | 131° |
| 2026-05-05 03:41 | 21.85211 | 114.69200 | 20747 ft | 445 kts | 131° |
| 2026-05-05 03:41 | 21.83337 | 114.71861 | 21032 ft | 447 kts | 131° |
| 2026-05-05 03:41 | 21.81451 | 114.74536 | 21316 ft | 450 kts | 131° |
| 2026-05-05 03:41 | 21.79553 | 114.77227 | 21591 ft | 453 kts | 131° |
| 2026-05-05 03:42 | 21.77654 | 114.79959 | 21865 ft | 457 kts | 128° |
| 2026-05-05 03:42 | 21.76013 | 114.82910 | 22124 ft | 463 kts | 118° |
| 2026-05-05 03:42 | 21.74884 | 114.86177 | 22383 ft | 469 kts | 105° |
| 2026-05-05 03:42 | 21.74377 | 114.89650 | 22644 ft | 474 kts | 94° |
| 2026-05-05 03:43 | 21.74295 | 114.93203 | 22914 ft | 476 kts | 90° |
| 2026-05-05 03:43 | 21.74308 | 114.96778 | 23185 ft | 479 kts | 90° |
| 2026-05-05 03:43 | 21.74329 | 115.00327 | 23457 ft | 482 kts | 90° |
| 2026-05-05 03:43 | 21.74342 | 115.03942 | 23727 ft | 484 kts | 90° |
| 2026-05-05 03:44 | 21.74348 | 115.07576 | 23978 ft | 486 kts | 90° |
| 2026-05-05 03:44 | 21.74350 | 115.11209 | 24237 ft | 488 kts | 90° |
| 2026-05-05 03:44 | 21.74349 | 115.14877 | 24504 ft | 490 kts | 90° |
| 2026-05-05 03:44 | 21.74345 | 115.18550 | 24767 ft | 492 kts | 90° |
| 2026-05-05 03:45 | 21.74341 | 115.22248 | 25032 ft | 494 kts | 90° |
| 2026-05-05 03:45 | 21.74336 | 115.25913 | 25295 ft | 496 kts | 90° |
| 2026-05-05 03:45 | 21.74333 | 115.29634 | 25560 ft | 498 kts | 90° |
| 2026-05-05 03:45 | 21.74333 | 115.33381 | 25840 ft | 500 kts | 90° |
| 2026-05-05 03:46 | 21.74333 | 115.37130 | 26093 ft | 502 kts | 90° |
| 2026-05-05 03:46 | 21.74336 | 115.40894 | 26341 ft | 504 kts | 90° |
| 2026-05-05 03:46 | 21.74342 | 115.44674 | 26592 ft | 506 kts | 90° |
| 2026-05-05 03:46 | 21.74350 | 115.48467 | 26845 ft | 508 kts | 90° |
| 2026-05-05 03:47 | 21.74360 | 115.52234 | 27089 ft | 510 kts | 90° |
| 2026-05-05 03:47 | 21.74374 | 115.56055 | 27328 ft | 512 kts | 90° |
| 2026-05-05 03:47 | 21.74391 | 115.59890 | 27553 ft | 513 kts | 90° |
| 2026-05-05 03:47 | 21.74410 | 115.63738 | 27779 ft | 515 kts | 90° |
| 2026-05-05 03:48 | 21.74432 | 115.67601 | 27985 ft | 517 kts | 90° |
| 2026-05-05 03:48 | 21.74456 | 115.71480 | 28199 ft | 519 kts | 90° |
| 2026-05-05 03:48 | 21.74483 | 115.75381 | 28416 ft | 521 kts | 90° |
| 2026-05-05 03:48 | 21.74511 | 115.79279 | 28696 ft | 521 kts | 90° |
| 2026-05-05 03:49 | 21.74599 | 115.83176 | 29007 ft | 520 kts | 85° |
| 2026-05-05 03:49 | 21.75041 | 115.87040 | 29316 ft | 520 kts | 83° |
| 2026-05-05 03:49 | 21.75560 | 115.90884 | 29598 ft | 520 kts | 81° |
| 2026-05-05 03:49 | 21.76129 | 115.94677 | 29882 ft | 520 kts | 80° |
| 2026-05-05 03:50 | 21.76728 | 115.98496 | 30327 ft | 514 kts | 80° |
| 2026-05-05 03:50 | 21.77331 | 116.02298 | 30904 ft | 505 kts | 80° |
| 2026-05-05 03:50 | 21.77907 | 116.05954 | 31481 ft | 496 kts | 80° |
| 2026-05-05 03:50 | 21.78471 | 116.09582 | 32070 ft | 487 kts | 80° |
| 2026-05-05 03:51 | 21.79018 | 116.13141 | 32676 ft | 477 kts | 80° |
| 2026-05-05 03:51 | 21.79548 | 116.16627 | 33297 ft | 466 kts | 80° |
| 2026-05-05 03:51 | 21.80058 | 116.20000 | 33924 ft | 454 kts | 80° |
| 2026-05-05 03:51 | 21.80557 | 116.23308 | 34486 ft | 441 kts | 80° |
| 2026-05-05 03:52 | 21.81042 | 116.26534 | 34876 ft | 433 kts | 80° |
| 2026-05-05 03:52 | 21.81525 | 116.29742 | 35005 ft | 433 kts | 80° |
| 2026-05-05 03:52 | 21.82496 | 116.36194 | 35023 ft | 440 kts | 80° |
| 2026-05-05 03:53 | 21.83478 | 116.42736 | 35021 ft | 446 kts | 80° |
| 2026-05-05 03:53 | 21.84474 | 116.49390 | 35021 ft | 454 kts | 80° |
| 2026-05-05 03:54 | 21.85480 | 116.56142 | 35021 ft | 461 kts | 80° |
| 2026-05-05 03:54 | 21.86502 | 116.63015 | 35021 ft | 469 kts | 80° |
| 2026-05-05 03:55 | 21.87529 | 116.69950 | 35023 ft | 476 kts | 80° |
| 2026-05-05 03:55 | 21.88581 | 116.77070 | 35017 ft | 486 kts | 80° |
| 2026-05-05 03:56 | 21.89648 | 116.84309 | 35020 ft | 494 kts | 80° |
| 2026-05-05 03:56 | 21.90732 | 116.91691 | 35023 ft | 502 kts | 80° |
| 2026-05-05 03:57 | 21.91829 | 116.99183 | 35022 ft | 509 kts | 80° |
| 2026-05-05 03:57 | 21.92922 | 117.06681 | 35023 ft | 509 kts | 80° |
| 2026-05-05 03:58 | 21.94018 | 117.14222 | 35020 ft | 509 kts | 80° |
| 2026-05-05 03:58 | 21.95111 | 117.21760 | 35021 ft | 509 kts | 81° |
| 2026-05-05 03:59 | 21.96201 | 117.29304 | 35021 ft | 511 kts | 81° |
| 2026-05-05 03:59 | 21.97290 | 117.36874 | 35021 ft | 511 kts | 81° |
| 2026-05-05 04:00 | 21.98372 | 117.44410 | 35023 ft | 512 kts | 81° |
| 2026-05-05 04:00 | 22.00369 | 117.51701 | 35020 ft | 505 kts | 60° |
| 2026-05-05 04:01 | 22.03796 | 117.58320 | 35018 ft | 505 kts | 56° |
| 2026-05-05 04:01 | 22.07475 | 117.64767 | 35017 ft | 505 kts | 54° |
| 2026-05-05 04:02 | 22.11161 | 117.71157 | 35021 ft | 505 kts | 55° |
| 2026-05-05 04:02 | 22.14845 | 117.77609 | 35035 ft | 505 kts | 55° |
| 2026-05-05 04:03 | 22.18516 | 117.84089 | 35019 ft | 507 kts | 55° |
| 2026-05-05 04:03 | 22.22196 | 117.90605 | 35020 ft | 508 kts | 55° |
| 2026-05-05 04:04 | 22.25869 | 117.97120 | 35021 ft | 508 kts | 55° |
| 2026-05-05 04:04 | 22.29544 | 118.03573 | 35026 ft | 507 kts | 54° |
| 2026-05-05 04:05 | 22.33310 | 118.10023 | 35022 ft | 507 kts | 54° |
| 2026-05-05 04:05 | 22.37088 | 118.16474 | 35047 ft | 507 kts | 54° |
| 2026-05-05 04:06 | 22.40854 | 118.22944 | 35027 ft | 510 kts | 55° |
| 2026-05-05 04:06 | 22.44576 | 118.29485 | 35027 ft | 511 kts | 55° |
| 2026-05-05 04:07 | 22.48255 | 118.36005 | 35023 ft | 511 kts | 55° |
| 2026-05-05 04:07 | 22.51958 | 118.42570 | 35023 ft | 510 kts | 55° |
| 2026-05-05 04:08 | 22.55651 | 118.49113 | 35026 ft | 509 kts | 55° |
| 2026-05-05 04:08 | 22.59356 | 118.55647 | 35024 ft | 509 kts | 55° |
| 2026-05-05 04:09 | 22.63075 | 118.62170 | 35026 ft | 509 kts | 55° |
| 2026-05-05 04:09 | 22.66770 | 118.68654 | 35022 ft | 509 kts | 55° |
| 2026-05-05 04:10 | 22.70488 | 118.75193 | 35024 ft | 509 kts | 55° |
| 2026-05-05 04:10 | 22.74206 | 118.81744 | 35024 ft | 509 kts | 55° |
| 2026-05-05 04:11 | 22.77887 | 118.88239 | 35022 ft | 509 kts | 55° |
| 2026-05-05 04:11 | 22.81594 | 118.94785 | 35030 ft | 510 kts | 55° |
| 2026-05-05 04:12 | 22.85314 | 119.01363 | 35023 ft | 511 kts | 55° |
| 2026-05-05 04:12 | 22.89026 | 119.07939 | 35022 ft | 511 kts | 55° |
| 2026-05-05 04:13 | 22.92715 | 119.14480 | 35021 ft | 511 kts | 55° |
| 2026-05-05 04:13 | 22.96421 | 119.21061 | 35023 ft | 511 kts | 55° |
| 2026-05-05 04:14 | 23.00131 | 119.27654 | 35021 ft | 511 kts | 56° |
| 2026-05-05 04:14 | 23.03838 | 119.34252 | 35018 ft | 513 kts | 56° |
| 2026-05-05 04:15 | 23.07539 | 119.40848 | 35017 ft | 513 kts | 56° |
| 2026-05-05 04:15 | 23.10627 | 119.46358 | 35018 ft | 514 kts | 56° |
| 2026-05-05 04:16 | 23.14951 | 119.54086 | 35009 ft | 513 kts | 56° |
| 2026-05-05 04:16 | 23.18058 | 119.59644 | 35020 ft | 513 kts | 56° |
| 2026-05-05 04:17 | 23.21739 | 119.66232 | 35036 ft | 513 kts | 56° |
| 2026-05-05 04:17 | 23.25463 | 119.72902 | 35018 ft | 516 kts | 56° |
| 2026-05-05 04:18 | 23.29194 | 119.79595 | 35022 ft | 517 kts | 56° |
| 2026-05-05 04:18 | 23.32893 | 119.86243 | 35022 ft | 516 kts | 56° |
| 2026-05-05 04:19 | 23.36882 | 119.92698 | 35028 ft | 509 kts | 43° |
| 2026-05-05 04:19 | 23.41828 | 119.98200 | 35028 ft | 506 kts | 39° |
| 2026-05-05 04:20 | 23.46949 | 120.03481 | 35012 ft | 508 kts | 38° |
| 2026-05-05 04:20 | 23.52125 | 120.08748 | 35015 ft | 509 kts | 38° |
| 2026-05-05 04:21 | 23.57253 | 120.14004 | 35013 ft | 509 kts | 38° |
| 2026-05-05 04:21 | 23.62403 | 120.19318 | 35015 ft | 509 kts | 38° |
| 2026-05-05 04:22 | 23.67552 | 120.24644 | 35026 ft | 510 kts | 38° |
| 2026-05-05 04:22 | 23.72699 | 120.29974 | 35025 ft | 511 kts | 38° |
| 2026-05-05 04:23 | 23.77863 | 120.35325 | 35026 ft | 511 kts | 38° |
| 2026-05-05 04:23 | 23.83011 | 120.40668 | 35036 ft | 511 kts | 38° |
| 2026-05-05 04:24 | 23.88136 | 120.46002 | 35048 ft | 511 kts | 39° |
| 2026-05-05 04:25 | 23.95867 | 120.54095 | 35042 ft | 512 kts | 39° |
| 2026-05-05 04:25 | 24.01001 | 120.59510 | 35048 ft | 512 kts | 39° |
| 2026-05-05 04:26 | 24.06102 | 120.64901 | 35051 ft | 512 kts | 39° |
| 2026-05-05 04:26 | 24.11229 | 120.70324 | 35059 ft | 513 kts | 39° |
| 2026-05-05 04:27 | 24.16378 | 120.75773 | 35055 ft | 514 kts | 39° |
| 2026-05-05 04:27 | 24.21505 | 120.81209 | 35050 ft | 515 kts | 39° |
| 2026-05-05 04:28 | 24.26645 | 120.86662 | 35056 ft | 515 kts | 39° |
| 2026-05-05 04:28 | 24.31797 | 120.92133 | 35083 ft | 515 kts | 39° |
| 2026-05-05 04:29 | 24.36926 | 120.97644 | 35057 ft | 515 kts | 39° |
| 2026-05-05 04:29 | 24.41957 | 121.03247 | 35037 ft | 518 kts | 45° |
| 2026-05-05 04:30 | 24.46554 | 121.09282 | 35080 ft | 521 kts | 47° |
| 2026-05-05 04:30 | 24.51066 | 121.15545 | 35071 ft | 520 kts | 47° |
| 2026-05-05 04:31 | 24.55553 | 121.21809 | 35062 ft | 521 kts | 47° |
| 2026-05-05 04:31 | 24.60021 | 121.28033 | 35066 ft | 523 kts | 47° |
| 2026-05-05 04:32 | 24.64528 | 121.34326 | 35074 ft | 523 kts | 47° |
| 2026-05-05 04:32 | 24.69055 | 121.40577 | 35074 ft | 521 kts | 47° |
| 2026-05-05 04:33 | 24.73580 | 121.46820 | 35057 ft | 522 kts | 47° |
| 2026-05-05 04:33 | 24.78116 | 121.53090 | 35046 ft | 524 kts | 47° |
| 2026-05-05 04:34 | 24.82624 | 121.59325 | 35036 ft | 522 kts | 47° |
| 2026-05-05 04:34 | 24.87129 | 121.65587 | 35040 ft | 523 kts | 48° |
| 2026-05-05 04:35 | 24.91692 | 121.71829 | 35039 ft | 522 kts | 45° |
| 2026-05-05 04:35 | 24.96433 | 121.77893 | 35055 ft | 522 kts | 44° |
| 2026-05-05 04:36 | 25.01218 | 121.83927 | 35045 ft | 524 kts | 44° |
| 2026-05-05 04:36 | 25.06003 | 121.89991 | 35037 ft | 522 kts | 44° |
| 2026-05-05 04:37 | 25.10757 | 121.96051 | 35039 ft | 522 kts | 44° |
| 2026-05-05 04:37 | 25.15471 | 122.02105 | 35061 ft | 523 kts | 45° |
| 2026-05-05 04:38 | 25.20213 | 122.08258 | 35038 ft | 526 kts | 45° |
| 2026-05-05 04:38 | 25.24954 | 122.14416 | 35037 ft | 526 kts | 45° |
| 2026-05-05 04:39 | 25.29690 | 122.20571 | 35054 ft | 525 kts | 45° |
| 2026-05-05 04:39 | 25.34391 | 122.26688 | 35074 ft | 525 kts | 45° |
| 2026-05-05 04:40 | 25.39148 | 122.32885 | 35040 ft | 531 kts | 45° |
| 2026-05-05 04:40 | 25.43920 | 122.39114 | 35054 ft | 528 kts | 45° |
| 2026-05-05 04:41 | 25.48660 | 122.45309 | 35052 ft | 528 kts | 45° |
| 2026-05-05 04:41 | 25.53414 | 122.51511 | 35059 ft | 527 kts | 45° |
| 2026-05-05 04:42 | 25.58161 | 122.57672 | 35056 ft | 528 kts | 45° |
| 2026-05-05 04:42 | 25.62932 | 122.63875 | 35053 ft | 528 kts | 45° |
| 2026-05-05 04:43 | 25.67687 | 122.70071 | 35064 ft | 527 kts | 45° |
| 2026-05-05 04:43 | 25.72442 | 122.76274 | 35065 ft | 527 kts | 45° |
| 2026-05-05 04:44 | 25.77193 | 122.82479 | 35076 ft | 528 kts | 45° |
| 2026-05-05 04:44 | 25.81935 | 122.88682 | 35074 ft | 529 kts | 45° |
| 2026-05-05 04:45 | 25.86692 | 122.94917 | 35078 ft | 529 kts | 45° |
| 2026-05-05 04:45 | 25.91450 | 123.01160 | 35078 ft | 528 kts | 45° |
| 2026-05-05 04:46 | 25.96196 | 123.07396 | 35082 ft | 530 kts | 45° |
| 2026-05-05 04:46 | 26.00958 | 123.13664 | 35084 ft | 531 kts | 45° |
| 2026-05-05 04:47 | 26.05687 | 123.19899 | 35086 ft | 530 kts | 45° |
| 2026-05-05 04:47 | 26.10443 | 123.26178 | 35084 ft | 529 kts | 45° |
| 2026-05-05 04:48 | 26.15198 | 123.32463 | 35094 ft | 530 kts | 45° |
| 2026-05-05 04:48 | 26.19953 | 123.38756 | 35095 ft | 531 kts | 45° |
| 2026-05-05 04:49 | 26.24706 | 123.45057 | 35096 ft | 531 kts | 46° |
| 2026-05-05 04:49 | 26.29426 | 123.51321 | 35103 ft | 531 kts | 46° |
| 2026-05-05 04:50 | 26.34183 | 123.57645 | 35102 ft | 531 kts | 46° |
| 2026-05-05 04:50 | 26.38935 | 123.63970 | 35101 ft | 532 kts | 46° |
| 2026-05-05 04:51 | 26.43692 | 123.70311 | 35094 ft | 532 kts | 46° |
| 2026-05-05 04:51 | 26.48402 | 123.76600 | 35101 ft | 531 kts | 46° |
| 2026-05-05 04:52 | 26.53136 | 123.82928 | 35104 ft | 531 kts | 46° |
| 2026-05-05 04:52 | 26.57868 | 123.89262 | 35102 ft | 531 kts | 46° |
| 2026-05-05 04:53 | 26.62579 | 123.95577 | 35085 ft | 531 kts | 46° |
| 2026-05-05 04:53 | 26.67317 | 124.01933 | 35107 ft | 531 kts | 46° |
| 2026-05-05 04:54 | 26.72040 | 124.08253 | 35102 ft | 531 kts | 46° |
| 2026-05-05 04:54 | 26.76782 | 124.14600 | 35102 ft | 531 kts | 46° |
| 2026-05-05 04:55 | 26.81520 | 124.20954 | 35103 ft | 531 kts | 46° |
| 2026-05-05 04:55 | 26.86256 | 124.27314 | 35104 ft | 531 kts | 46° |
| 2026-05-05 04:56 | 26.90991 | 124.33684 | 35102 ft | 532 kts | 46° |
| 2026-05-05 04:56 | 26.95735 | 124.40075 | 35105 ft | 532 kts | 46° |
| 2026-05-05 04:57 | 27.00439 | 124.46421 | 35109 ft | 532 kts | 46° |
| 2026-05-05 04:57 | 27.05178 | 124.52819 | 35110 ft | 532 kts | 46° |
| 2026-05-05 04:58 | 27.09910 | 124.59215 | 35113 ft | 532 kts | 47° |
| 2026-05-05 04:58 | 27.14635 | 124.65612 | 35106 ft | 532 kts | 47° |
| 2026-05-05 04:59 | 27.19359 | 124.72016 | 35107 ft | 532 kts | 47° |
| 2026-05-05 04:59 | 27.24075 | 124.78420 | 35145 ft | 532 kts | 47° |
| 2026-05-05 05:00 | 27.28763 | 124.84796 | 35112 ft | 532 kts | 47° |
| 2026-05-05 05:00 | 27.33482 | 124.91222 | 35114 ft | 532 kts | 47° |
| 2026-05-05 05:01 | 27.38202 | 124.97661 | 35112 ft | 532 kts | 47° |
| 2026-05-05 05:01 | 27.42931 | 125.04083 | 35126 ft | 532 kts | 47° |
| 2026-05-05 05:02 | 27.47677 | 125.10480 | 35119 ft | 532 kts | 46° |
| 2026-05-05 05:02 | 27.52400 | 125.16848 | 35119 ft | 531 kts | 47° |
| 2026-05-05 05:03 | 27.56329 | 125.22160 | 35118 ft | 531 kts | 47° |
| 2026-05-05 05:03 | 27.61068 | 125.28579 | 35126 ft | 531 kts | 47° |
| 2026-05-05 05:04 | 27.65773 | 125.34964 | 35110 ft | 529 kts | 47° |
| 2026-05-05 05:04 | 27.70481 | 125.41360 | 35114 ft | 529 kts | 47° |
| 2026-05-05 05:05 | 27.75179 | 125.47753 | 35122 ft | 529 kts | 47° |
| 2026-05-05 05:05 | 27.79842 | 125.54108 | 35120 ft | 529 kts | 47° |
| 2026-05-05 05:06 | 27.84557 | 125.60543 | 35123 ft | 528 kts | 47° |
| 2026-05-05 05:06 | 27.89219 | 125.66915 | 35124 ft | 528 kts | 47° |
| 2026-05-05 05:07 | 27.93904 | 125.73327 | 35151 ft | 529 kts | 47° |
| 2026-05-05 05:07 | 27.98591 | 125.79754 | 35118 ft | 530 kts | 47° |
| 2026-05-05 05:08 | 28.03283 | 125.86197 | 35121 ft | 530 kts | 47° |
| 2026-05-05 05:08 | 28.07987 | 125.92664 | 35129 ft | 530 kts | 47° |
| 2026-05-05 05:09 | 28.12645 | 125.99078 | 35136 ft | 531 kts | 48° |
| 2026-05-05 05:09 | 28.17346 | 126.05562 | 35126 ft | 532 kts | 48° |
| 2026-05-05 05:10 | 28.22045 | 126.12053 | 35139 ft | 532 kts | 48° |
| 2026-05-05 05:10 | 28.26741 | 126.18551 | 35125 ft | 532 kts | 48° |
| 2026-05-05 05:11 | 28.31413 | 126.25023 | 35124 ft | 533 kts | 48° |
| 2026-05-05 05:11 | 28.36116 | 126.31553 | 35130 ft | 531 kts | 48° |
| 2026-05-05 05:12 | 28.40799 | 126.38062 | 35124 ft | 531 kts | 48° |
| 2026-05-05 05:12 | 28.45441 | 126.44523 | 35124 ft | 531 kts | 48° |
| 2026-05-05 05:13 | 28.50110 | 126.51032 | 35119 ft | 531 kts | 47° |
| 2026-05-05 05:13 | 28.54776 | 126.57550 | 35132 ft | 529 kts | 48° |
| 2026-05-05 05:14 | 28.59419 | 126.64044 | 35136 ft | 529 kts | 48° |
| 2026-05-05 05:14 | 28.64032 | 126.70501 | 35135 ft | 530 kts | 49° |
| 2026-05-05 05:15 | 28.68689 | 126.77033 | 35119 ft | 531 kts | 48° |
| 2026-05-05 05:15 | 28.73339 | 126.83570 | 35125 ft | 529 kts | 48° |
| 2026-05-05 05:16 | 28.77974 | 126.90093 | 35140 ft | 529 kts | 48° |
| 2026-05-05 05:16 | 28.82613 | 126.96631 | 35127 ft | 531 kts | 49° |
| 2026-05-05 05:17 | 28.87223 | 127.03139 | 35129 ft | 530 kts | 48° |
| 2026-05-05 05:17 | 28.91856 | 127.09690 | 35124 ft | 530 kts | 48° |
| 2026-05-05 05:18 | 28.96487 | 127.16248 | 35132 ft | 531 kts | 49° |
| 2026-05-05 05:18 | 29.01131 | 127.22834 | 35127 ft | 533 kts | 49° |
| 2026-05-05 05:19 | 29.05772 | 127.29429 | 35129 ft | 531 kts | 49° |
| 2026-05-05 05:19 | 29.10402 | 127.36017 | 35142 ft | 531 kts | 49° |
| 2026-05-05 05:20 | 29.15013 | 127.42586 | 35129 ft | 533 kts | 49° |
| 2026-05-05 05:20 | 29.19683 | 127.49254 | 35124 ft | 533 kts | 49° |
| 2026-05-05 05:21 | 29.24278 | 127.55826 | 35130 ft | 531 kts | 49° |
| 2026-05-05 05:21 | 29.28907 | 127.62452 | 35134 ft | 533 kts | 49° |
| 2026-05-05 05:22 | 29.33552 | 127.69113 | 35132 ft | 534 kts | 50° |
| 2026-05-05 05:22 | 29.38179 | 127.75765 | 35128 ft | 533 kts | 49° |
| 2026-05-05 05:23 | 29.42763 | 127.82363 | 35134 ft | 532 kts | 49° |
| 2026-05-05 05:23 | 29.47403 | 127.89048 | 35129 ft | 534 kts | 50° |
| 2026-05-05 05:24 | 29.52034 | 127.95732 | 35114 ft | 535 kts | 49° |
| 2026-05-05 05:24 | 29.56622 | 128.02365 | 35157 ft | 533 kts | 50° |
| 2026-05-05 05:25 | 29.61250 | 128.09057 | 35134 ft | 535 kts | 50° |
| 2026-05-05 05:25 | 29.65885 | 128.15773 | 35132 ft | 536 kts | 50° |
| 2026-05-05 05:26 | 29.70522 | 128.22506 | 35129 ft | 535 kts | 50° |
| 2026-05-05 05:26 | 29.75121 | 128.29192 | 35134 ft | 536 kts | 50° |
| 2026-05-05 05:27 | 29.79760 | 128.35947 | 35133 ft | 538 kts | 50° |
| 2026-05-05 05:27 | 29.86696 | 128.46070 | 35145 ft | 538 kts | 50° |
| 2026-05-05 05:28 | 29.91347 | 128.52871 | 35141 ft | 542 kts | 50° |
| 2026-05-05 05:28 | 29.96022 | 128.59720 | 35139 ft | 544 kts | 50° |
| 2026-05-05 05:29 | 30.00697 | 128.66580 | 35121 ft | 543 kts | 50° |
| 2026-05-05 05:29 | 30.05354 | 128.73427 | 35136 ft | 541 kts | 50° |
| 2026-05-05 05:30 | 30.09996 | 128.80263 | 35140 ft | 540 kts | 50° |
| 2026-05-05 05:30 | 30.14634 | 128.87104 | 35140 ft | 540 kts | 50° |
| 2026-05-05 05:31 | 30.19244 | 128.93915 | 35141 ft | 541 kts | 50° |
| 2026-05-05 05:31 | 30.23888 | 129.00788 | 35147 ft | 542 kts | 50° |
| 2026-05-05 05:32 | 30.28525 | 129.07662 | 35143 ft | 542 kts | 51° |
| 2026-05-05 05:32 | 30.33161 | 129.14547 | 35139 ft | 543 kts | 51° |
| 2026-05-05 05:33 | 30.37788 | 129.21432 | 35142 ft | 544 kts | 51° |
| 2026-05-05 05:33 | 30.42440 | 129.28366 | 35141 ft | 544 kts | 51° |
| 2026-05-05 05:34 | 30.47090 | 129.35308 | 35133 ft | 545 kts | 51° |
| 2026-05-05 05:34 | 30.51718 | 129.42231 | 35141 ft | 545 kts | 51° |
| 2026-05-05 05:35 | 30.56361 | 129.49187 | 35138 ft | 545 kts | 51° |
| 2026-05-05 05:35 | 30.61001 | 129.56151 | 35155 ft | 546 kts | 51° |
| 2026-05-05 05:36 | 30.65632 | 129.63112 | 35144 ft | 548 kts | 51° |
| 2026-05-05 05:36 | 30.70290 | 129.70129 | 35143 ft | 547 kts | 51° |
| 2026-05-05 05:37 | 30.74938 | 129.77142 | 35153 ft | 548 kts | 51° |
| 2026-05-05 05:37 | 30.79596 | 129.84183 | 35139 ft | 549 kts | 51° |
| 2026-05-05 05:38 | 30.84199 | 129.91260 | 35138 ft | 548 kts | 57° |
| 2026-05-05 05:38 | 30.88282 | 129.98689 | 35160 ft | 549 kts | 57° |
| 2026-05-05 05:39 | 30.92328 | 130.06264 | 35136 ft | 551 kts | 58° |
| 2026-05-05 05:39 | 30.96342 | 130.13862 | 35141 ft | 551 kts | 58° |
| 2026-05-05 05:40 | 31.00365 | 130.21480 | 35162 ft | 551 kts | 58° |
| 2026-05-05 05:40 | 31.04402 | 130.29122 | 35140 ft | 552 kts | 58° |
| 2026-05-05 05:41 | 31.08398 | 130.36696 | 35146 ft | 551 kts | 58° |
| 2026-05-05 05:41 | 31.12415 | 130.44322 | 35178 ft | 551 kts | 58° |
| 2026-05-05 05:42 | 31.16436 | 130.51975 | 35148 ft | 553 kts | 58° |
| 2026-05-05 05:42 | 31.20465 | 130.59650 | 35152 ft | 555 kts | 58° |
| 2026-05-05 05:43 | 31.24498 | 130.67348 | 35149 ft | 554 kts | 58° |
| 2026-05-05 05:43 | 31.28512 | 130.75035 | 35152 ft | 554 kts | 58° |
| 2026-05-05 05:44 | 31.32506 | 130.82702 | 35144 ft | 554 kts | 58° |
| 2026-05-05 05:44 | 31.36518 | 130.90412 | 35152 ft | 555 kts | 58° |
| 2026-05-05 05:45 | 31.40528 | 130.98133 | 35151 ft | 553 kts | 58° |
| 2026-05-05 05:45 | 31.44518 | 131.05834 | 35155 ft | 553 kts | 58° |
| 2026-05-05 05:46 | 31.48502 | 131.13537 | 35140 ft | 552 kts | 58° |
| 2026-05-05 05:46 | 31.52474 | 131.21241 | 35154 ft | 553 kts | 58° |
| 2026-05-05 05:47 | 31.56462 | 131.28982 | 35153 ft | 554 kts | 58° |
| 2026-05-05 05:47 | 31.60453 | 131.36709 | 35145 ft | 554 kts | 58° |
| 2026-05-05 05:48 | 31.63758 | 131.43152 | 35163 ft | 555 kts | 58° |
| 2026-05-05 05:48 | 31.67739 | 131.50942 | 35159 ft | 556 kts | 58° |
| 2026-05-05 05:49 | 31.71709 | 131.58731 | 35151 ft | 555 kts | 58° |
| 2026-05-05 05:49 | 31.75645 | 131.66462 | 35159 ft | 555 kts | 58° |
| 2026-05-05 05:50 | 31.79618 | 131.74275 | 35158 ft | 556 kts | 58° |
| 2026-05-05 05:50 | 31.83581 | 131.82084 | 35157 ft | 555 kts | 58° |
| 2026-05-05 05:51 | 31.87528 | 131.89876 | 35161 ft | 557 kts | 58° |
| 2026-05-05 05:51 | 31.91474 | 131.97682 | 35160 ft | 558 kts | 58° |
| 2026-05-05 05:52 | 31.95434 | 132.05533 | 35185 ft | 557 kts | 58° |
| 2026-05-05 05:52 | 31.99393 | 132.13399 | 35161 ft | 558 kts | 58° |
| 2026-05-05 05:53 | 32.03359 | 132.21295 | 35139 ft | 559 kts | 58° |
| 2026-05-05 05:53 | 32.07301 | 132.29161 | 35182 ft | 557 kts | 58° |
| 2026-05-05 05:54 | 32.11274 | 132.36966 | 35156 ft | 558 kts | 51° |
| 2026-05-05 05:54 | 32.13776 | 132.40424 | 35161 ft | 550 kts | 38° |
| 2026-05-05 05:54 | 32.16615 | 132.43450 | 35158 ft | 547 kts | 36° |
| 2026-05-05 05:55 | 32.22472 | 132.49167 | 35162 ft | 546 kts | 32° |
| 2026-05-05 05:55 | 32.28441 | 132.54741 | 35164 ft | 547 kts | 32° |
| 2026-05-05 05:56 | 32.34404 | 132.60329 | 35194 ft | 548 kts | 32° |
| 2026-05-05 05:56 | 32.40331 | 132.65937 | 35168 ft | 548 kts | 32° |
| 2026-05-05 05:57 | 32.46278 | 132.71597 | 35168 ft | 548 kts | 32° |
| 2026-05-05 05:57 | 32.52230 | 132.77275 | 35175 ft | 549 kts | 32° |
| 2026-05-05 05:58 | 32.58184 | 132.82961 | 35170 ft | 550 kts | 32° |
| 2026-05-05 05:58 | 32.64159 | 132.88678 | 35171 ft | 551 kts | 32° |
| 2026-05-05 05:59 | 32.70116 | 132.94387 | 35174 ft | 551 kts | 32° |
| 2026-05-05 05:59 | 32.75833 | 133.00486 | 35189 ft | 560 kts | 46° |
| 2026-05-05 06:00 | 32.78252 | 133.04123 | 34965 ft | 561 kts | 49° |
| 2026-05-05 06:00 | 32.80582 | 133.07852 | 34728 ft | 563 kts | 51° |
| 2026-05-05 06:00 | 32.82830 | 133.11598 | 34507 ft | 564 kts | 52° |
| 2026-05-05 06:00 | 32.85084 | 133.15431 | 34269 ft | 566 kts | 52° |
| 2026-05-05 06:01 | 32.87335 | 133.19283 | 34029 ft | 567 kts | 52° |
| 2026-05-05 06:01 | 32.89587 | 133.23136 | 33780 ft | 566 kts | 52° |
| 2026-05-05 06:01 | 32.91832 | 133.26965 | 33516 ft | 565 kts | 52° |
| 2026-05-05 06:01 | 32.94089 | 133.30803 | 33256 ft | 564 kts | 52° |
| 2026-05-05 06:02 | 32.96341 | 133.34624 | 32997 ft | 563 kts | 52° |
| 2026-05-05 06:02 | 32.98590 | 133.38438 | 32732 ft | 562 kts | 52° |
| 2026-05-05 06:02 | 33.00808 | 133.42198 | 32526 ft | 560 kts | 51° |
| 2026-05-05 06:02 | 33.03041 | 133.45990 | 32266 ft | 558 kts | 51° |
| 2026-05-05 06:03 | 33.05272 | 133.49779 | 32007 ft | 557 kts | 51° |
| 2026-05-05 06:03 | 33.07496 | 133.53559 | 31758 ft | 555 kts | 51° |
| 2026-05-05 06:03 | 33.09711 | 133.57332 | 31520 ft | 552 kts | 51° |
| 2026-05-05 06:03 | 33.11901 | 133.61066 | 31300 ft | 548 kts | 51° |
| 2026-05-05 06:04 | 33.14081 | 133.64787 | 31040 ft | 545 kts | 51° |
| 2026-05-05 06:04 | 33.16246 | 133.68486 | 30801 ft | 542 kts | 51° |
| 2026-05-05 06:04 | 33.18396 | 133.72163 | 30571 ft | 539 kts | 51° |
| 2026-05-05 06:04 | 33.20536 | 133.75827 | 30336 ft | 536 kts | 51° |
| 2026-05-05 06:05 | 33.22636 | 133.79423 | 30099 ft | 533 kts | 52° |
| 2026-05-05 06:05 | 33.24750 | 133.83047 | 29826 ft | 530 kts | 52° |
| 2026-05-05 06:05 | 33.26849 | 133.86651 | 29531 ft | 526 kts | 52° |
| 2026-05-05 06:05 | 33.28929 | 133.90226 | 29271 ft | 522 kts | 52° |
| 2026-05-05 06:06 | 33.30993 | 133.93778 | 28994 ft | 518 kts | 52° |
| 2026-05-05 06:06 | 33.33045 | 133.97309 | 28763 ft | 515 kts | 52° |
| 2026-05-05 06:06 | 33.35084 | 134.00821 | 28503 ft | 512 kts | 52° |
| 2026-05-05 06:06 | 33.37105 | 134.04307 | 28229 ft | 509 kts | 52° |
| 2026-05-05 06:07 | 33.41125 | 134.11253 | 28169 ft | 505 kts | 52° |
| 2026-05-05 06:07 | 33.43115 | 134.14706 | 28048 ft | 503 kts | 52° |
| 2026-05-05 06:07 | 33.45098 | 134.18147 | 27786 ft | 500 kts | 52° |
| 2026-05-05 06:08 | 33.47072 | 134.21561 | 27547 ft | 497 kts | 52° |
| 2026-05-05 06:08 | 33.49033 | 134.24969 | 27172 ft | 496 kts | 53° |
| 2026-05-05 06:08 | 33.50969 | 134.28361 | 26733 ft | 493 kts | 53° |
| 2026-05-05 06:08 | 33.52884 | 134.31694 | 26218 ft | 488 kts | 52° |
| 2026-05-05 06:09 | 33.54798 | 134.35005 | 25700 ft | 477 kts | 53° |
| 2026-05-05 06:09 | 33.56665 | 134.38241 | 25168 ft | 470 kts | 53° |
| 2026-05-05 06:09 | 33.58526 | 134.41452 | 24669 ft | 464 kts | 51° |
| 2026-05-05 06:09 | 33.60652 | 134.44277 | 24159 ft | 451 kts | 35° |
| 2026-05-05 06:10 | 33.63241 | 134.46246 | 23665 ft | 432 kts | 17° |
| 2026-05-05 06:10 | 33.66063 | 134.47290 | 23067 ft | 418 kts | 6° |
| 2026-05-05 06:10 | 33.68894 | 134.47953 | 22503 ft | 411 kts | 4° |
| 2026-05-05 06:10 | 33.71668 | 134.48543 | 21941 ft | 406 kts | 5° |
| 2026-05-05 06:11 | 33.74438 | 134.49131 | 21385 ft | 402 kts | 5° |
| 2026-05-05 06:11 | 33.77196 | 134.49722 | 20841 ft | 401 kts | 6° |
| 2026-05-05 06:11 | 33.79940 | 134.50318 | 20295 ft | 397 kts | 6° |
| 2026-05-05 06:11 | 33.82646 | 134.50911 | 19772 ft | 393 kts | 6° |
| 2026-05-05 06:12 | 33.85324 | 134.51500 | 19242 ft | 388 kts | 7° |
| 2026-05-05 06:12 | 33.87969 | 134.52084 | 18739 ft | 384 kts | 7° |
| 2026-05-05 06:12 | 33.90584 | 134.52661 | 18197 ft | 380 kts | 7° |
| 2026-05-05 06:12 | 33.93138 | 134.53225 | 17627 ft | 376 kts | 8° |
| 2026-05-05 06:13 | 33.95699 | 134.53791 | 17061 ft | 372 kts | 8° |
| 2026-05-05 06:13 | 33.98240 | 134.54348 | 16496 ft | 369 kts | 8° |
| 2026-05-05 06:13 | 34.00757 | 134.54904 | 15964 ft | 366 kts | 9° |
| 2026-05-05 06:13 | 34.03249 | 134.55458 | 15425 ft | 363 kts | 9° |
| 2026-05-05 06:14 | 34.05737 | 134.56012 | 14894 ft | 362 kts | 9° |
| 2026-05-05 06:14 | 34.08214 | 134.56563 | 14353 ft | 360 kts | 10° |
| 2026-05-05 06:14 | 34.10674 | 134.57109 | 13828 ft | 358 kts | 10° |
| 2026-05-05 06:14 | 34.13120 | 134.57653 | 13250 ft | 356 kts | 11° |
| 2026-05-05 06:15 | 34.15542 | 134.58212 | 12686 ft | 353 kts | 13° |
| 2026-05-05 06:15 | 34.17842 | 134.59180 | 12146 ft | 348 kts | 28° |
| 2026-05-05 06:15 | 34.19776 | 134.60884 | 11597 ft | 343 kts | 46° |
| 2026-05-05 06:15 | 34.21346 | 134.62973 | 11200 ft | 335 kts | 51° |
| 2026-05-05 06:16 | 34.22825 | 134.65121 | 10959 ft | 331 kts | 52° |
| 2026-05-05 06:16 | 34.24290 | 134.67268 | 10721 ft | 331 kts | 51° |
| 2026-05-05 06:16 | 34.25762 | 134.69419 | 10483 ft | 330 kts | 51° |
| 2026-05-05 06:16 | 34.27222 | 134.71547 | 10249 ft | 328 kts | 51° |
| 2026-05-05 06:17 | 34.28673 | 134.73654 | 10012 ft | 325 kts | 51° |
| 2026-05-05 06:17 | 34.30112 | 134.75742 | 9752 ft | 317 kts | 51° |
| 2026-05-05 06:17 | 34.31498 | 134.77752 | 9495 ft | 305 kts | 51° |
| 2026-05-05 06:17 | 34.32813 | 134.79660 | 9249 ft | 294 kts | 51° |
| 2026-05-05 06:18 | 34.34109 | 134.81542 | 9018 ft | 289 kts | 51° |
| 2026-05-05 06:18 | 34.35398 | 134.83413 | 8755 ft | 289 kts | 51° |
| 2026-05-05 06:18 | 34.36685 | 134.85285 | 8503 ft | 289 kts | 51° |
| 2026-05-05 06:18 | 34.37974 | 134.87158 | 8266 ft | 289 kts | 51° |
| 2026-05-05 06:19 | 34.39253 | 134.89019 | 8016 ft | 288 kts | 51° |
| 2026-05-05 06:19 | 34.40530 | 134.90879 | 7768 ft | 286 kts | 51° |
| 2026-05-05 06:19 | 34.41801 | 134.92729 | 7521 ft | 285 kts | 51° |
| 2026-05-05 06:19 | 34.43066 | 134.94571 | 7279 ft | 284 kts | 51° |
| 2026-05-05 06:20 | 34.44328 | 134.96409 | 7050 ft | 283 kts | 51° |
| 2026-05-05 06:20 | 34.45588 | 134.98246 | 6914 ft | 282 kts | 51° |
| 2026-05-05 06:20 | 34.46825 | 135.00051 | 6776 ft | 282 kts | 51° |
| 2026-05-05 06:20 | 34.48078 | 135.01879 | 6591 ft | 281 kts | 51° |
| 2026-05-05 06:21 | 34.49321 | 135.03693 | 6338 ft | 279 kts | 51° |
| 2026-05-05 06:21 | 34.50557 | 135.05499 | 6080 ft | 278 kts | 52° |
| 2026-05-05 06:21 | 34.51789 | 135.07300 | 5832 ft | 277 kts | 52° |
| 2026-05-05 06:21 | 34.53015 | 135.09093 | 5572 ft | 275 kts | 52° |
| 2026-05-05 06:22 | 34.54232 | 135.10873 | 5317 ft | 274 kts | 52° |
| 2026-05-05 06:22 | 34.55451 | 135.12658 | 5071 ft | 273 kts | 52° |
| 2026-05-05 06:22 | 34.56663 | 135.14433 | 4838 ft | 272 kts | 52° |
| 2026-05-05 06:22 | 34.57868 | 135.16200 | 4701 ft | 271 kts | 52° |
| 2026-05-05 06:23 | 34.59069 | 135.17962 | 4573 ft | 271 kts | 52° |
| 2026-05-05 06:23 | 34.60142 | 135.19829 | 4442 ft | 268 kts | 66° |
| 2026-05-05 06:23 | 34.60602 | 135.21933 | 4312 ft | 250 kts | 88° |
| 2026-05-05 06:23 | 34.60636 | 135.23982 | 4191 ft | 236 kts | 93° |
| 2026-05-05 06:24 | 34.60592 | 135.25923 | 4065 ft | 226 kts | 94° |
| 2026-05-05 06:24 | 34.60540 | 135.27824 | 3943 ft | 225 kts | 94° |
| 2026-05-05 06:24 | 34.60490 | 135.29728 | 3818 ft | 226 kts | 93° |
| 2026-05-05 06:24 | 34.60446 | 135.31612 | 3700 ft | 226 kts | 93° |
| 2026-05-05 06:25 | 34.60403 | 135.33519 | 3558 ft | 226 kts | 93° |
| 2026-05-05 06:25 | 34.60325 | 135.35425 | 3312 ft | 225 kts | 101° |
| 2026-05-05 06:25 | 34.59659 | 135.37105 | 2846 ft | 225 kts | 138° |
| 2026-05-05 06:25 | 34.58262 | 135.37861 | 2449 ft | 224 kts | 174° |
| 2026-05-05 06:26 | 34.56713 | 135.37834 | 2185 ft | 222 kts | 189° |
| 2026-05-05 06:26 | 34.55227 | 135.37314 | 2037 ft | 224 kts | 200° |
| 2026-05-05 06:26 | 34.53799 | 135.36538 | 1825 ft | 225 kts | 212° |
| 2026-05-05 06:26 | 34.52633 | 135.35300 | 1624 ft | 223 kts | 228° |
| 2026-05-05 06:27 | 34.51646 | 135.33858 | 1524 ft | 221 kts | 231° |
| 2026-05-05 06:27 | 34.49739 | 135.30938 | 1511 ft | 221 kts | 231° |
| 2026-05-05 06:27 | 34.48794 | 135.29502 | 1522 ft | 220 kts | 231° |
| 2026-05-05 06:28 | 34.47834 | 135.28059 | 1522 ft | 218 kts | 231° |
| 2026-05-05 06:28 | 34.46876 | 135.26608 | 1167 ft | 215 kts | 232° |
| 2026-05-05 06:28 | 34.46066 | 135.25386 | 1756 ft | 163 kts | 230° |
| 2026-05-05 06:28 | 34.45309 | 135.24276 | 2131 ft | 194 kts | 231° |
| 2026-05-05 06:29 | 34.44309 | 135.22769 | 2024 ft | 267 kts | 231° |